createdAt,value
2023-02-05T00:01:20.987Z,-0.30
2023-02-05T00:03:24.428Z,-0.30
2023-02-05T00:05:27.867Z,-0.40
2023-02-05T00:07:31.186Z,-0.40
2023-02-05T00:09:34.726Z,-0.40
2023-02-05T00:11:38.154Z,-0.20
2023-02-05T00:13:44.212Z,-0.30
2023-02-05T00:15:47.831Z,-0.40
2023-02-05T00:17:51.301Z,-0.20
2023-02-05T00:19:54.724Z,-0.30
2023-02-05T00:21:58.183Z,-0.40
2023-02-05T00:24:01.861Z,-0.40
2023-02-05T00:26:06.208Z,-0.60
2023-02-05T00:28:09.714Z,-0.70
2023-02-05T00:30:15.044Z,-0.90
2023-02-05T00:32:18.396Z,-1.00
2023-02-05T00:34:21.918Z,-1.20
2023-02-05T00:36:25.974Z,-1.50
2023-02-05T00:38:29.285Z,-1.60
2023-02-05T00:40:32.578Z,-1.70
2023-02-05T00:42:35.925Z,-1.80
2023-02-05T00:44:39.318Z,-1.80
2023-02-05T00:46:44.179Z,-1.90
2023-02-05T00:48:47.634Z,-2.10
2023-02-05T00:50:53.766Z,-2.10
2023-02-05T00:52:57.159Z,-2.10
2023-02-05T00:55:00.493Z,-2.20
2023-02-05T00:57:04.248Z,-2.20
2023-02-05T00:59:07.566Z,-2.30
2023-02-05T01:01:10.940Z,-2.30
2023-02-05T01:03:15.787Z,-2.40
2023-02-05T01:05:19.356Z,-2.40
2023-02-05T01:07:22.892Z,-2.40
2023-02-05T01:09:26.235Z,-2.40
2023-02-05T01:11:29.874Z,-2.60
2023-02-05T01:13:33.265Z,-2.60
2023-02-05T01:15:36.994Z,-2.70
2023-02-05T01:17:40.624Z,-2.80
2023-02-05T01:19:45.602Z,-2.80
2023-02-05T01:21:49.168Z,-2.80
2023-02-05T01:23:52.687Z,-2.70
2023-02-05T01:25:56.075Z,-2.70
2023-02-05T01:27:59.584Z,-2.70
2023-02-05T01:30:03.398Z,-2.70
2023-02-05T01:32:07.289Z,-2.80
2023-02-05T01:34:10.783Z,-2.80
2023-02-05T01:36:15.740Z,-2.80
2023-02-05T01:38:19.161Z,-2.80
2023-02-05T01:40:22.855Z,-2.80
2023-02-05T01:42:28.096Z,-2.90
2023-02-05T01:44:32.596Z,-2.80
2023-02-05T01:46:37.394Z,-3.00
2023-02-05T01:48:43.939Z,-3.10
2023-02-05T01:50:52.474Z,-3.20
2023-02-05T01:52:59.688Z,-3.30
2023-02-05T01:55:03.232Z,-3.20
2023-02-05T01:57:11.073Z,-3.20
2023-02-05T01:59:20.149Z,-3.30
2023-02-05T02:01:24.022Z,-3.30
2023-02-05T02:03:29.047Z,-3.30
2023-02-05T02:05:32.653Z,-3.30
2023-02-05T02:07:36.554Z,-3.40
2023-02-05T02:09:43.109Z,-3.20
2023-02-05T02:11:46.837Z,-3.20
2023-02-05T02:13:53.773Z,-3.30
2023-02-05T02:15:57.962Z,-3.30
2023-02-05T02:18:17.447Z,-3.30
2023-02-05T02:20:26.228Z,-3.30
2023-02-05T02:22:59.266Z,-3.30
2023-02-05T02:25:22.511Z,-3.30
2023-02-05T02:27:40.058Z,-3.30
2023-02-05T02:29:51.802Z,-3.30
2023-02-05T02:32:01.071Z,-3.40
2023-02-05T02:34:10.002Z,-3.30
2023-02-05T02:36:19.154Z,-3.30
2023-02-05T02:38:28.668Z,-3.30
2023-02-05T02:40:38.683Z,-3.30
2023-02-05T02:42:48.860Z,-3.30
2023-02-05T02:44:57.754Z,-3.30
2023-02-05T02:47:05.346Z,-3.10
2023-02-05T02:49:13.240Z,-3.00
2023-02-05T02:51:20.161Z,-3.00
2023-02-05T02:53:27.306Z,-3.00
2023-02-05T02:55:33.923Z,-2.90
2023-02-05T02:57:40.331Z,-2.70
2023-02-05T02:59:47.100Z,-2.40
2023-02-05T03:01:56.819Z,-2.40
2023-02-05T03:04:03.953Z,-2.60
2023-02-05T03:06:11.228Z,-2.60
2023-02-05T03:08:19.866Z,-2.60
2023-02-05T03:10:27.951Z,-2.70
2023-02-05T03:12:32.035Z,-2.70
2023-02-05T03:14:35.558Z,-2.80
2023-02-05T03:16:40.477Z,-2.50
2023-02-05T03:18:44.410Z,-2.60
2023-02-05T03:20:51.679Z,-2.60
2023-02-05T03:22:56.172Z,-2.60
2023-02-05T03:24:59.833Z,-2.60
2023-02-05T03:27:03.250Z,-2.60
2023-02-05T03:29:11.466Z,-2.50
2023-02-05T03:31:21.693Z,-2.40
2023-02-05T03:33:40.923Z,-2.50
2023-02-05T03:35:52.636Z,-2.60
2023-02-05T03:38:09.035Z,-2.60
2023-02-05T03:40:19.290Z,-2.40
2023-02-05T03:42:33.322Z,-2.50
2023-02-05T03:44:59.113Z,-2.60
2023-02-05T03:47:06.962Z,-2.70
2023-02-05T03:49:21.385Z,-2.80
2023-02-05T03:51:34.121Z,-2.80
2023-02-05T03:53:41.228Z,-2.80
2023-02-05T03:55:49.836Z,-3.00
2023-02-05T03:57:59.933Z,-3.00
2023-02-05T04:00:03.773Z,-3.00
2023-02-05T04:02:07.633Z,-3.20
2023-02-05T04:04:12.625Z,-3.40
2023-02-05T04:06:16.110Z,-3.40
2023-02-05T04:08:27.088Z,-3.30
2023-02-05T04:10:30.474Z,-3.30
2023-02-05T04:12:34.052Z,-3.30
2023-02-05T04:14:37.378Z,-3.30
2023-02-05T04:16:40.761Z,-3.30
2023-02-05T04:18:44.433Z,-3.40
2023-02-05T04:20:49.256Z,-3.50
2023-02-05T04:22:52.665Z,-3.50
2023-02-05T04:24:56.064Z,-3.60
2023-02-05T04:26:59.489Z,-3.60
2023-02-05T04:29:02.927Z,-3.60
2023-02-05T04:31:08.567Z,-3.70
2023-02-05T04:33:12.011Z,-3.70
2023-02-05T04:35:15.589Z,-3.70
2023-02-05T04:37:20.417Z,-3.80
2023-02-05T04:39:23.914Z,-3.80
2023-02-05T04:41:27.394Z,-4.00
2023-02-05T04:43:30.795Z,-3.90
2023-02-05T04:45:34.519Z,-4.00
2023-02-05T04:47:38.186Z,-3.90
2023-02-05T04:49:42.008Z,-3.90
2023-02-05T04:51:45.449Z,-4.00
2023-02-05T04:53:50.201Z,-4.10
2023-02-05T04:55:55.015Z,-4.10
2023-02-05T04:57:58.503Z,-4.00
2023-02-05T05:00:01.908Z,-3.90
2023-02-05T05:02:05.351Z,-4.00
2023-02-05T05:04:08.776Z,-4.00
2023-02-05T05:06:12.727Z,-4.10
2023-02-05T05:08:16.093Z,-4.20
2023-02-05T05:10:21.001Z,-4.20
2023-02-05T05:12:24.459Z,-4.20
2023-02-05T05:14:27.835Z,-4.20
2023-02-05T05:16:32.604Z,-4.20
2023-02-05T05:18:36.544Z,-4.30
2023-02-05T05:20:41.795Z,-4.30
2023-02-05T05:22:46.027Z,-4.20
2023-02-05T05:24:49.488Z,-4.20
2023-02-05T05:26:54.324Z,-4.30
2023-02-05T05:28:58.294Z,-4.30
2023-02-05T05:31:06.803Z,-4.40
2023-02-05T05:33:10.605Z,-4.30
2023-02-05T05:35:14.034Z,-4.20
2023-02-05T05:37:17.436Z,-4.00
2023-02-05T05:39:38.699Z,-4.00
2023-02-05T05:41:59.814Z,-3.70
2023-02-05T05:44:04.765Z,-3.40
2023-02-05T05:46:09.638Z,-3.30
2023-02-05T05:48:13.058Z,-3.30
2023-02-05T05:50:17.071Z,-3.50
2023-02-05T05:52:20.560Z,-3.70
2023-02-05T05:54:24.100Z,-3.90
2023-02-05T05:56:27.471Z,-3.80
2023-02-05T05:58:30.966Z,-3.80
2023-02-05T06:00:35.990Z,-3.80
2023-02-05T06:02:44.334Z,-3.70
2023-02-05T06:04:47.883Z,-3.80
2023-02-05T06:06:52.523Z,-3.80
2023-02-05T06:08:55.814Z,-3.90
2023-02-05T06:10:59.683Z,-3.90
2023-02-05T06:13:03.094Z,-4.10
2023-02-05T06:15:07.524Z,-4.20
2023-02-05T06:17:12.546Z,-4.20
2023-02-05T06:19:17.229Z,-4.20
2023-02-05T06:21:20.616Z,-4.20
2023-02-05T06:23:24.044Z,-4.20
2023-02-05T06:25:27.617Z,-4.30
2023-02-05T06:27:31.026Z,-4.30
2023-02-05T06:29:34.518Z,-4.40
2023-02-05T06:31:38.136Z,-4.40
2023-02-05T06:33:42.947Z,-4.50
2023-02-05T06:35:46.365Z,-4.50
2023-02-05T06:37:49.734Z,-4.50
2023-02-05T06:39:53.319Z,-4.50
2023-02-05T06:41:56.794Z,-4.50
2023-02-05T06:44:00.218Z,-4.40
2023-02-05T06:46:03.658Z,-4.40
2023-02-05T06:48:07.328Z,-4.30
2023-02-05T06:50:12.463Z,-4.10
2023-02-05T06:52:16.730Z,-4.20
2023-02-05T06:54:20.090Z,-4.10
2023-02-05T06:56:23.515Z,-4.10
2023-02-05T06:58:26.827Z,-4.10
2023-02-05T07:00:32.423Z,-4.20
2023-02-05T07:02:36.005Z,-4.20
2023-02-05T07:04:39.381Z,-4.20
2023-02-05T07:06:44.200Z,-4.10
2023-02-05T07:08:47.993Z,-4.20
2023-02-05T07:10:51.290Z,-4.10
2023-02-05T07:12:54.780Z,-4.10
2023-02-05T07:14:58.167Z,-4.00
2023-02-05T07:17:01.722Z,-3.90
2023-02-05T07:19:05.265Z,-3.90
2023-02-05T07:21:10.775Z,-3.60
2023-02-05T07:23:15.820Z,-3.60
2023-02-05T07:25:19.354Z,-3.60
2023-02-05T07:27:22.769Z,-3.60
2023-02-05T07:29:26.117Z,-3.50
2023-02-05T07:31:29.551Z,-3.50
2023-02-05T07:33:33.230Z,-3.50
2023-02-05T07:35:39.471Z,-3.50
2023-02-05T07:37:43.029Z,-3.30
2023-02-05T07:39:47.782Z,-3.20
2023-02-05T07:41:53.643Z,-3.10
2023-02-05T07:43:57.138Z,-2.80
2023-02-05T07:46:04.414Z,-2.60
2023-02-05T07:48:07.978Z,-2.60
2023-02-05T07:50:11.568Z,-2.50
2023-02-05T07:52:15.107Z,-2.40
2023-02-05T07:54:18.557Z,-2.10
2023-02-05T07:56:25.840Z,-2.00
2023-02-05T07:58:29.365Z,-2.00
2023-02-05T08:00:32.852Z,-2.00
2023-02-05T08:02:37.549Z,-1.90
2023-02-05T08:04:41.083Z,-1.80
2023-02-05T08:06:44.594Z,-1.70
2023-02-05T08:08:47.972Z,-1.70
2023-02-05T08:10:57.997Z,-1.60
2023-02-05T08:13:02.938Z,-1.50
2023-02-05T08:15:06.612Z,-0.70
2023-02-05T08:17:10.000Z,0.20
2023-02-05T08:19:16.741Z,1.50
2023-02-05T08:21:21.979Z,1.70
2023-02-05T08:23:25.641Z,1.40
2023-02-05T08:25:29.103Z,0.70
2023-02-05T08:27:34.365Z,0.20
2023-02-05T08:29:39.202Z,-0.20
2023-02-05T08:31:42.955Z,-0.40
2023-02-05T08:33:47.912Z,-0.40
2023-02-05T08:35:51.369Z,-0.50
2023-02-05T08:37:54.895Z,-0.70
2023-02-05T08:40:00.461Z,-0.60
2023-02-05T08:42:04.349Z,-0.70
2023-02-05T08:44:07.754Z,-0.60
2023-02-05T08:46:15.052Z,-0.30
2023-02-05T08:48:18.613Z,-0.30
2023-02-05T08:50:22.585Z,-0.30
2023-02-05T08:52:26.041Z,-0.10
2023-02-05T08:54:29.479Z,0.20
2023-02-05T08:56:33.202Z,1.90
2023-02-05T08:58:36.911Z,3.90
2023-02-05T09:00:40.511Z,3.80
2023-02-05T09:02:45.684Z,3.20
2023-02-05T09:04:50.295Z,3.20
2023-02-05T09:06:55.075Z,4.40
2023-02-05T09:08:58.597Z,4.00
2023-02-05T09:11:02.003Z,3.20
2023-02-05T09:13:05.461Z,3.20
2023-02-05T09:15:10.456Z,3.40
2023-02-05T09:17:14.528Z,3.20
2023-02-05T09:19:19.470Z,4.40
2023-02-05T09:21:23.723Z,4.80
2023-02-05T09:23:27.095Z,4.30
2023-02-05T09:25:34.379Z,3.80
2023-02-05T09:27:38.061Z,4.80
2023-02-05T09:29:41.596Z,6.40
2023-02-05T09:31:45.369Z,7.20
2023-02-05T09:33:48.834Z,6.10
2023-02-05T09:35:53.701Z,5.20
2023-02-05T09:37:57.037Z,4.50
2023-02-05T09:42:32.087Z,6.30
2023-02-05T09:44:50.914Z,5.70
2023-02-05T09:47:02.649Z,6.30
2023-02-05T09:49:10.457Z,5.50
2023-02-05T09:51:15.278Z,4.90
2023-02-05T09:53:21.119Z,4.70
2023-02-05T09:55:27.511Z,4.80
2023-02-05T09:57:35.417Z,4.50
2023-02-05T09:59:43.306Z,4.80
2023-02-05T10:01:50.951Z,6.30
2023-02-05T10:04:00.552Z,7.30
2023-02-05T10:06:22.133Z,6.40
2023-02-05T10:08:32.049Z,5.70
2023-02-05T10:10:41.218Z,8.30
2023-02-05T10:13:06.575Z,9.10
2023-02-05T10:15:26.584Z,10.80
2023-02-05T10:17:44.760Z,12.90
2023-02-05T10:20:00.838Z,11.10
2023-02-05T10:22:18.638Z,10.80
2023-02-05T10:24:37.877Z,11.70
2023-02-05T10:26:47.714Z,12.50
2023-02-05T10:29:13.228Z,12.30
2023-02-05T10:31:29.262Z,12.10
2023-02-05T10:33:46.860Z,12.30
2023-02-05T10:35:58.462Z,13.00
2023-02-05T10:38:06.004Z,12.60
2023-02-05T10:40:19.850Z,11.90
2023-02-05T10:42:31.934Z,13.30
2023-02-05T10:44:39.800Z,13.60
2023-02-05T10:46:51.702Z,13.40
2023-02-05T10:49:02.563Z,12.70
2023-02-05T10:51:08.212Z,12.30
2023-02-05T10:53:14.150Z,11.80
2023-02-05T10:55:17.864Z,12.10
2023-02-05T10:57:23.338Z,11.80
2023-02-05T10:59:29.752Z,13.10
2023-02-05T11:01:36.870Z,12.70
2023-02-05T11:03:41.150Z,12.00
2023-02-05T11:05:47.215Z,12.60
2023-02-05T11:07:52.440Z,10.10
2023-02-05T11:09:57.489Z,9.70
2023-02-05T11:12:03.633Z,8.50
2023-02-05T11:14:08.862Z,8.60
2023-02-05T11:16:12.750Z,8.30
2023-02-05T11:18:25.426Z,7.80
2023-02-05T11:20:34.248Z,7.80
2023-02-05T11:22:39.874Z,8.10
2023-02-05T11:24:43.368Z,7.90
2023-02-05T11:26:49.533Z,7.50
2023-02-05T11:28:53.689Z,8.30
2023-02-05T11:30:57.882Z,7.70
2023-02-05T11:33:25.874Z,7.70
2023-02-05T11:35:33.337Z,7.00
2023-02-05T11:37:40.439Z,6.60
2023-02-05T11:39:45.805Z,6.00
2023-02-05T11:41:52.150Z,6.30
2023-02-05T11:43:56.245Z,7.90
2023-02-05T11:46:01.645Z,8.20
2023-02-05T11:48:21.602Z,8.50
2023-02-05T11:50:26.853Z,8.40
2023-02-05T11:52:32.080Z,8.30
2023-02-05T11:54:36.796Z,8.50
2023-02-05T11:56:40.264Z,8.40
2023-02-05T11:58:47.133Z,8.80
2023-02-05T12:00:54.143Z,7.20
2023-02-05T12:03:06.687Z,7.30
2023-02-05T12:05:19.542Z,7.30
2023-02-05T12:07:25.184Z,7.40
2023-02-05T12:09:28.887Z,8.60
2023-02-05T12:12:03.865Z,8.30
2023-02-05T12:14:17.858Z,8.00
2023-02-05T12:16:34.615Z,7.70
2023-02-05T12:18:49.339Z,7.60
2023-02-05T12:21:06.560Z,7.50
2023-02-05T12:23:28.863Z,7.30
2023-02-05T12:25:40.829Z,7.00
2023-02-05T12:28:05.587Z,6.80
2023-02-05T12:30:24.840Z,6.40
2023-02-05T12:32:39.986Z,6.90
2023-02-05T12:35:06.099Z,7.20
2023-02-05T12:37:24.881Z,7.90
2023-02-05T12:39:39.749Z,7.90
2023-02-05T12:41:51.424Z,8.00
2023-02-05T12:44:00.898Z,7.60
2023-02-05T12:46:30.553Z,6.90
2023-02-05T12:48:51.250Z,8.10
2023-02-05T12:51:08.773Z,9.40
2023-02-05T12:53:23.014Z,9.30
2023-02-05T12:55:36.832Z,10.70
2023-02-05T12:57:44.189Z,10.20
2023-02-05T12:59:50.698Z,11.20
2023-02-05T13:02:00.570Z,11.70
2023-02-05T13:04:04.312Z,12.30
2023-02-05T13:06:13.882Z,12.40
2023-02-05T13:08:22.219Z,13.00
2023-02-05T13:10:30.171Z,12.40
2023-02-05T13:12:37.382Z,12.40
2023-02-05T13:14:44.699Z,12.70
2023-02-05T13:16:51.171Z,13.10
2023-02-05T13:19:01.808Z,12.50
2023-02-05T13:21:21.480Z,11.70
2023-02-05T13:23:42.713Z,10.90
2023-02-05T13:26:07.984Z,11.30
2023-02-05T13:28:42.759Z,11.40
2023-02-05T13:30:57.023Z,11.10
2023-02-05T13:33:03.319Z,11.90
2023-02-05T13:35:09.849Z,11.50
2023-02-05T13:37:47.037Z,10.90
2023-02-05T13:40:16.301Z,11.30
2023-02-05T13:42:59.155Z,10.90
2023-02-05T13:45:32.598Z,10.80
2023-02-05T13:48:03.929Z,10.40
2023-02-05T13:50:32.811Z,9.80
2023-02-05T13:52:58.153Z,10.60
2023-02-05T13:55:20.426Z,10.80
2023-02-05T13:58:01.752Z,10.70
2023-02-05T14:00:06.975Z,10.80
2023-02-05T14:02:32.188Z,10.40
2023-02-05T14:04:40.599Z,10.50
2023-02-05T14:06:51.457Z,10.90
2023-02-05T14:09:02.072Z,10.30
2023-02-05T14:11:06.714Z,9.90
2023-02-05T14:13:20.225Z,9.60
2023-02-05T14:15:26.768Z,9.80
2023-02-05T14:17:55.607Z,10.20
2023-02-05T14:20:01.206Z,9.90
2023-02-05T14:22:11.479Z,9.70
2023-02-05T14:24:29.944Z,9.90
2023-02-05T14:26:48.283Z,10.00
2023-02-05T14:28:53.322Z,8.60
2023-02-05T14:30:58.822Z,8.40
2023-02-05T14:33:03.815Z,8.80
2023-02-05T14:35:28.157Z,8.70
2023-02-05T14:37:38.410Z,8.50
2023-02-05T14:39:41.901Z,8.50
2023-02-05T14:41:52.193Z,8.00
2023-02-05T14:43:59.789Z,7.70
2023-02-05T14:46:07.893Z,7.30
2023-02-05T14:48:21.969Z,6.80
2023-02-05T14:50:29.338Z,6.30
2023-02-05T14:52:38.854Z,5.80
2023-02-05T14:54:48.441Z,5.20
2023-02-05T14:56:54.193Z,4.60
2023-02-05T14:59:01.739Z,4.30
2023-02-05T15:01:46.497Z,3.70
2023-02-05T15:03:50.034Z,3.40
2023-02-05T15:05:59.495Z,3.30
2023-02-05T15:08:12.310Z,3.10
2023-02-05T15:10:20.892Z,2.60
2023-02-05T15:12:53.888Z,2.40
2023-02-05T15:14:58.858Z,2.00
2023-02-05T15:17:53.188Z,1.80
2023-02-05T15:20:01.507Z,1.60
2023-02-05T15:22:22.050Z,1.40
2023-02-05T15:24:31.072Z,1.30
2023-02-05T15:26:43.176Z,1.00
2023-02-05T15:29:00.316Z,1.00
2023-02-05T15:31:22.966Z,0.90
2023-02-05T15:33:34.310Z,0.80
2023-02-05T15:35:40.208Z,0.70
2023-02-05T15:37:47.489Z,0.50
2023-02-05T15:39:55.311Z,0.40
2023-02-05T15:42:01.315Z,0.30
2023-02-05T15:44:05.694Z,0.20
2023-02-05T15:46:13.127Z,0.30
2023-02-05T15:48:20.259Z,0.20
2023-02-05T15:50:23.830Z,0.10
2023-02-05T15:52:29.974Z,0.00
2023-02-05T15:54:37.417Z,-0.20
2023-02-05T15:56:43.417Z,-0.30
2023-02-05T15:58:51.715Z,-0.40
2023-02-05T16:00:56.702Z,-0.40
2023-02-05T16:03:01.665Z,-0.40
2023-02-05T16:05:18.444Z,-0.60
2023-02-05T16:07:23.559Z,-0.70
2023-02-05T16:09:28.460Z,-0.80
2023-02-05T16:11:33.526Z,-0.90
2023-02-05T16:13:42.081Z,-0.90
2023-02-05T16:15:54.033Z,-1.00
2023-02-05T16:17:59.946Z,-1.10
2023-02-05T16:20:15.583Z,-1.20
2023-02-05T16:22:33.416Z,-1.20
2023-02-05T16:24:42.364Z,-1.20
2023-02-05T16:26:49.129Z,-1.20
2023-02-05T16:28:58.562Z,-1.40
2023-02-05T16:31:02.948Z,-1.50
2023-02-05T16:33:06.834Z,-1.50
2023-02-05T16:35:20.461Z,-1.60
2023-02-05T16:37:29.295Z,-1.60
2023-02-05T16:39:39.358Z,-1.60
2023-02-05T16:41:44.410Z,-1.60
2023-02-05T16:43:47.903Z,-1.70
2023-02-05T16:46:23.864Z,-1.70
2023-02-05T16:48:30.683Z,-1.70
2023-02-05T16:50:42.341Z,-1.80
2023-02-05T16:52:57.712Z,-1.90
2023-02-05T16:55:06.542Z,-2.00
2023-02-05T16:57:14.612Z,-1.90
2023-02-05T16:59:24.760Z,-2.00
2023-02-05T17:01:33.202Z,-1.90
2023-02-05T17:03:39.302Z,-1.90
2023-02-05T17:05:42.728Z,-1.90
2023-02-05T17:07:55.845Z,-2.00
2023-02-05T17:10:17.434Z,-2.10
2023-02-05T17:12:46.745Z,-2.20
2023-02-05T17:14:55.159Z,-2.30
2023-02-05T17:17:01.436Z,-2.20
2023-02-05T17:19:06.441Z,-2.30
2023-02-05T17:21:23.887Z,-2.40
2023-02-05T17:23:27.258Z,-2.50
2023-02-05T17:25:32.026Z,-2.40
2023-02-05T17:27:38.978Z,-2.40
2023-02-05T17:29:42.407Z,-2.40
2023-02-05T17:31:45.894Z,-2.40
2023-02-05T17:33:54.164Z,-2.50
2023-02-05T17:35:57.667Z,-2.30
2023-02-05T17:38:01.071Z,-2.30
2023-02-05T17:40:04.677Z,-2.30
2023-02-05T17:42:09.647Z,-2.40
2023-02-05T17:44:14.094Z,-2.50
2023-02-05T17:46:17.964Z,-2.40
2023-02-05T17:48:21.439Z,-2.40
2023-02-05T17:50:26.328Z,-2.50
2023-02-05T17:52:29.817Z,-2.50
2023-02-05T17:54:33.233Z,-2.60
2023-02-05T17:56:36.720Z,-2.60
2023-02-05T17:58:40.243Z,-2.60
2023-02-05T18:00:43.695Z,-2.70
2023-02-05T18:02:47.287Z,-2.60
2023-02-05T18:04:50.785Z,-2.40
2023-02-05T18:06:55.766Z,-2.50
2023-02-05T18:08:59.141Z,-2.60
2023-02-05T18:11:02.534Z,-2.80
2023-02-05T18:13:05.887Z,-2.90
2023-02-05T18:15:10.302Z,-2.90
2023-02-05T18:17:13.696Z,-3.00
2023-02-05T18:19:17.195Z,-3.10
2023-02-05T18:21:21.576Z,-3.10
2023-02-05T18:23:29.125Z,-3.10
2023-02-05T18:25:32.683Z,-3.20
2023-02-05T18:27:36.380Z,-3.20
2023-02-05T18:29:40.258Z,-3.10
2023-02-05T18:31:44.671Z,-3.10
2023-02-05T18:33:51.623Z,-3.20
2023-02-05T18:35:55.223Z,-3.10
2023-02-05T18:37:58.610Z,-3.20
2023-02-05T18:40:03.450Z,-3.30
2023-02-05T18:42:07.098Z,-3.40
2023-02-05T18:44:10.584Z,-3.50
2023-02-05T18:46:16.198Z,-3.50
2023-02-05T18:48:19.723Z,-3.60
2023-02-05T18:50:24.048Z,-3.70
2023-02-05T18:52:30.057Z,-3.70
2023-02-05T18:54:34.201Z,-3.70
2023-02-05T18:56:39.451Z,-3.70
2023-02-05T18:58:43.765Z,-3.70
2023-02-05T19:00:47.112Z,-3.70
2023-02-05T19:02:50.466Z,-3.70
2023-02-05T19:04:56.392Z,-3.70
2023-02-05T19:07:00.131Z,-3.70
2023-02-05T19:09:04.367Z,-3.60
2023-02-05T19:11:08.742Z,-3.50
2023-02-05T19:13:13.538Z,-3.50
2023-02-05T19:15:17.131Z,-3.70
2023-02-05T19:17:20.651Z,-3.80
2023-02-05T19:19:25.739Z,-3.80
2023-02-05T19:21:30.744Z,-3.80
2023-02-05T19:23:34.493Z,-3.70
2023-02-05T19:25:38.127Z,-3.80
2023-02-05T19:27:41.506Z,-3.80
2023-02-05T19:29:46.516Z,-3.90
2023-02-05T19:31:52.364Z,-4.00
2023-02-05T19:33:56.936Z,-4.10
2023-02-05T19:36:00.781Z,-4.10
2023-02-05T19:38:04.177Z,-3.90
2023-02-05T19:40:09.356Z,-4.00
2023-02-05T19:42:12.686Z,-4.10
2023-02-05T19:44:16.122Z,-4.10
2023-02-05T19:46:22.573Z,-4.10
2023-02-05T19:48:25.909Z,-4.10
2023-02-05T19:50:29.389Z,-4.20
2023-02-05T19:52:32.851Z,-4.20
2023-02-05T19:54:36.237Z,-4.20
2023-02-05T19:56:39.849Z,-4.30
2023-02-05T19:58:45.472Z,-4.30
2023-02-05T20:00:48.882Z,-4.30
2023-02-05T20:02:56.423Z,-4.30
2023-02-05T20:04:59.790Z,-4.40
2023-02-05T20:07:03.245Z,-4.50
2023-02-05T20:09:10.361Z,-4.60
2023-02-05T20:11:14.360Z,-4.50
2023-02-05T20:13:17.815Z,-4.60
2023-02-05T20:15:21.218Z,-4.60
2023-02-05T20:17:24.742Z,-4.60
2023-02-05T20:19:29.667Z,-4.70
2023-02-05T20:21:33.060Z,-4.80
2023-02-05T20:23:36.763Z,-4.70
2023-02-05T20:25:40.223Z,-4.70
2023-02-05T20:27:43.761Z,-4.60
2023-02-05T20:30:04.551Z,-4.70
2023-02-05T20:32:08.927Z,-4.80
2023-02-05T20:34:18.318Z,-4.80
2023-02-05T20:36:23.194Z,-4.90
2023-02-05T20:38:27.005Z,-4.90
2023-02-05T20:40:30.372Z,-4.90
2023-02-05T20:42:33.814Z,-4.90
2023-02-05T20:44:37.687Z,-5.00
2023-02-05T20:46:41.182Z,-5.10
2023-02-05T20:48:44.933Z,-5.00
2023-02-05T20:50:48.275Z,-5.00
2023-02-05T20:52:53.125Z,-5.00
2023-02-05T20:54:57.307Z,-5.00
2023-02-05T20:57:00.845Z,-5.00
2023-02-05T20:59:06.493Z,-5.00
2023-02-05T21:01:11.847Z,-5.10
2023-02-05T21:03:15.279Z,-5.20
2023-02-05T21:05:18.859Z,-5.20
2023-02-05T21:07:29.401Z,-5.20
2023-02-05T21:09:34.385Z,-5.30
2023-02-05T21:11:38.463Z,-5.30
2023-02-05T21:13:42.568Z,-5.30
2023-02-05T21:15:54.218Z,-5.30
2023-02-05T21:17:57.766Z,-5.30
2023-02-05T21:20:01.527Z,-5.20
2023-02-05T21:22:06.056Z,-5.30
2023-02-05T21:24:13.725Z,-5.20
2023-02-05T21:26:23.023Z,-5.20
2023-02-05T21:28:27.011Z,-5.20
2023-02-05T21:30:30.572Z,-5.20
2023-02-05T21:32:35.035Z,-5.20
2023-02-05T21:34:38.551Z,-5.20
2023-02-05T21:36:42.478Z,-5.20
2023-02-05T21:38:46.345Z,-5.20
2023-02-05T21:40:50.337Z,-5.30
2023-02-05T21:42:55.228Z,-5.40
2023-02-05T21:44:58.634Z,-5.40
2023-02-05T21:47:02.059Z,-5.40
2023-02-05T21:49:05.638Z,-5.40
2023-02-05T21:51:10.784Z,-5.40
2023-02-05T21:53:16.185Z,-5.50
2023-02-05T21:55:21.153Z,-5.40
2023-02-05T21:57:24.892Z,-5.50
2023-02-05T21:59:29.892Z,-5.40
2023-02-05T22:01:34.974Z,-5.50
2023-02-05T22:03:38.348Z,-5.60
2023-02-05T22:05:41.814Z,-5.60
2023-02-05T22:07:45.179Z,-5.60
2023-02-05T22:09:48.697Z,-5.70
2023-02-05T22:11:52.203Z,-5.70
2023-02-05T22:13:57.120Z,-5.70
2023-02-05T22:16:06.568Z,-5.70
2023-02-05T22:18:10.053Z,-5.80
2023-02-05T22:20:14.065Z,-5.80
2023-02-05T22:22:17.544Z,-5.90
2023-02-05T22:24:22.831Z,-5.90
2023-02-05T22:26:28.446Z,-6.00
2023-02-05T22:28:32.597Z,-6.00
2023-02-05T22:30:36.092Z,-5.90
2023-02-05T22:32:41.016Z,-6.00
2023-02-05T22:34:44.554Z,-6.00
2023-02-05T22:36:48.338Z,-6.10
2023-02-05T22:38:53.197Z,-6.00
2023-02-05T22:40:56.583Z,-6.00
2023-02-05T22:42:59.982Z,-6.00
2023-02-05T22:45:03.580Z,-5.90
2023-02-05T22:47:06.962Z,-6.00
2023-02-05T22:49:15.315Z,-5.90
2023-02-05T22:51:22.289Z,-6.00
2023-02-05T22:53:25.687Z,-6.20
2023-02-05T22:55:29.037Z,-6.20
2023-02-05T22:57:32.426Z,-6.20
2023-02-05T22:59:35.820Z,-6.30
2023-02-05T23:01:40.173Z,-6.30
2023-02-05T23:03:44.332Z,-6.40
2023-02-05T23:05:49.234Z,-6.40
2023-02-05T23:07:53.516Z,-6.30
2023-02-05T23:09:56.977Z,-6.40
2023-02-05T23:12:01.070Z,-6.30
2023-02-05T23:14:06.675Z,-6.30
2023-02-05T23:16:12.161Z,-6.30
2023-02-05T23:18:15.596Z,-6.30
2023-02-05T23:20:19.091Z,-6.30
2023-02-05T23:22:23.892Z,-6.40
2023-02-05T23:24:27.311Z,-6.50
2023-02-05T23:26:33.329Z,-6.30
2023-02-05T23:28:37.183Z,-6.40
2023-02-05T23:30:40.598Z,-6.40
2023-02-05T23:32:44.070Z,-6.40
2023-02-05T23:34:47.518Z,-6.50
2023-02-05T23:36:50.932Z,-6.60
2023-02-05T23:38:55.944Z,-6.60
2023-02-05T23:40:59.883Z,-6.50
2023-02-05T23:43:03.235Z,-6.60
2023-02-05T23:45:07.069Z,-6.60
2023-02-05T23:47:10.457Z,-6.50
2023-02-05T23:49:14.872Z,-6.50
2023-02-05T23:51:18.393Z,-6.50
2023-02-05T23:53:22.388Z,-6.50
2023-02-05T23:55:27.331Z,-6.60
2023-02-05T23:57:30.720Z,-6.70
2023-02-05T23:59:34.281Z,-6.60
